createdAt,value
2019-05-07T00:02:33.112Z,77.97
2019-05-07T00:07:27.708Z,78.58
2019-05-07T00:12:23.068Z,78.56
2019-05-07T00:17:17.768Z,78.54
2019-05-07T00:22:12.669Z,79.67
2019-05-07T00:27:07.426Z,80.22
2019-05-07T00:32:02.909Z,79.89
2019-05-07T00:37:02.267Z,80.24
2019-05-07T00:41:56.628Z,81.25
2019-05-07T00:46:52.534Z,81.07
2019-05-07T00:51:47.365Z,81.64
2019-05-07T00:56:42.851Z,81.14
2019-05-07T01:01:38.249Z,80.94
2019-05-07T01:06:33.237Z,81.47
2019-05-07T01:11:27.961Z,81.72
2019-05-07T01:16:22.624Z,81.48
2019-05-07T01:21:17.265Z,82.50
2019-05-07T01:26:12.427Z,82.44
2019-05-07T01:31:07.120Z,83.71
2019-05-07T01:36:05.740Z,83.84
2019-05-07T01:41:02.704Z,84.31
2019-05-07T01:45:56.634Z,84.31
2019-05-07T01:50:52.544Z,85.75
2019-05-07T01:55:47.744Z,86.27
2019-05-07T02:00:42.664Z,86.20
2019-05-07T02:05:42.403Z,86.00
2019-05-07T02:10:42.825Z,86.19
2019-05-07T02:15:37.658Z,86.53
2019-05-07T02:20:32.388Z,85.40
2019-05-07T02:25:27.183Z,85.03
2019-05-07T02:30:23.680Z,84.00
2019-05-07T02:35:18.988Z,84.70
2019-05-07T02:40:22.916Z,85.59
2019-05-07T02:45:19.798Z,85.68
2019-05-07T02:50:16.306Z,86.79
2019-05-07T02:55:15.550Z,87.49
2019-05-07T03:00:14.065Z,87.85
2019-05-07T03:05:07.029Z,88.18
2019-05-07T03:10:03.446Z,87.62
2019-05-07T03:14:58.069Z,87.19
2019-05-07T03:19:54.392Z,87.44
2019-05-07T03:24:52.986Z,87.05
2019-05-07T03:29:48.664Z,87.34
2019-05-07T03:34:58.103Z,87.82
2019-05-07T03:39:53.811Z,87.06
2019-05-07T03:44:59.088Z,87.30
2019-05-07T03:49:54.539Z,87.82
2019-05-07T03:54:49.133Z,87.52
2019-05-07T03:59:43.733Z,87.86
2019-05-07T04:04:38.303Z,87.74
2019-05-07T04:09:33.523Z,87.35
2019-05-07T04:14:28.449Z,86.13
2019-05-07T04:19:23.683Z,85.89
2019-05-07T04:24:23.499Z,86.27
2019-05-07T04:29:19.086Z,83.44
2019-05-07T04:34:15.327Z,76.86
2019-05-07T04:39:12.954Z,72.40
2019-05-07T04:44:06.339Z,67.59
2019-05-07T04:49:03.274Z,63.61
2019-05-07T04:53:57.243Z,60.15
2019-05-07T04:58:53.099Z,58.20
2019-05-07T05:03:47.982Z,57.04
2019-05-07T05:08:43.455Z,58.63
2019-05-07T05:13:38.462Z,58.78
2019-05-07T05:18:33.133Z,59.86
2019-05-07T05:23:32.951Z,61.87
2019-05-07T05:28:27.564Z,63.00
2019-05-07T05:33:23.462Z,60.60
2019-05-07T05:38:18.351Z,59.81
2019-05-07T05:43:22.403Z,59.06
2019-05-07T05:48:16.848Z,60.17
2019-05-07T05:53:12.210Z,59.07
2019-05-07T05:58:14.394Z,56.01
2019-05-07T06:03:13.148Z,51.72
2019-05-07T06:08:09.834Z,51.82
2019-05-07T06:13:16.745Z,50.64
2019-05-07T06:18:29.091Z,49.09
2019-05-07T06:23:26.377Z,48.35
2019-05-07T06:28:22.363Z,49.01
2019-05-07T06:33:17.168Z,49.14
2019-05-07T06:38:13.069Z,49.12
2019-05-07T06:43:12.484Z,50.57
2019-05-07T06:48:08.259Z,49.75
2019-05-07T06:53:02.936Z,50.08
2019-05-07T06:57:57.491Z,51.21
2019-05-07T07:03:12.685Z,51.73
2019-05-07T07:08:23.032Z,51.75
2019-05-07T07:13:18.564Z,50.21
2019-05-07T07:18:14.308Z,50.06
2019-05-07T07:23:09.061Z,49.34
2019-05-07T07:28:03.699Z,48.69
2019-05-07T07:32:59.939Z,48.16
2019-05-07T07:37:56.778Z,48.66
2019-05-07T07:42:52.045Z,47.83
2019-05-07T07:47:47.930Z,47.82
2019-05-07T07:52:43.186Z,50.24
2019-05-07T07:57:48.125Z,51.10
2019-05-07T08:02:44.654Z,49.85
2019-05-07T08:07:39.398Z,49.20
2019-05-07T08:12:34.125Z,48.51
2019-05-07T08:17:28.818Z,48.12
2019-05-07T08:22:24.229Z,49.06
2019-05-07T08:27:22.224Z,48.53
2019-05-07T08:32:19.597Z,45.74
2019-05-07T08:37:18.722Z,44.58
2019-05-07T08:42:13.585Z,45.21
2019-05-07T08:47:24.813Z,43.11
2019-05-07T08:52:19.380Z,43.82
2019-05-07T08:57:14.949Z,43.06
2019-05-07T09:02:09.642Z,43.56
2019-05-07T09:07:04.340Z,41.09
2019-05-07T09:12:04.737Z,40.76
2019-05-07T09:17:02.182Z,39.89
2019-05-07T09:22:12.740Z,39.40
2019-05-07T09:27:17.656Z,40.08
2019-05-07T09:32:32.500Z,38.59
2019-05-07T09:37:42.017Z,36.76
2019-05-07T09:42:46.997Z,34.87
2019-05-07T09:47:42.939Z,34.94
2019-05-07T09:52:38.418Z,33.62
2019-05-07T09:57:34.712Z,33.64
2019-05-07T10:02:31.945Z,34.03
2019-05-07T10:07:26.595Z,34.48
2019-05-07T10:12:23.560Z,35.15
2019-05-07T10:17:22.709Z,34.01
2019-05-07T10:22:17.779Z,32.84
2019-05-07T10:27:14.093Z,32.45
2019-05-07T10:32:08.831Z,32.38
2019-05-07T10:37:03.502Z,31.80
2019-05-07T10:41:58.077Z,31.06
2019-05-07T10:47:12.111Z,31.73
2019-05-07T10:52:08.355Z,31.65
2019-05-07T10:57:02.962Z,28.82
2019-05-07T11:01:59.333Z,28.30
2019-05-07T11:06:53.891Z,27.26
2019-05-07T11:11:48.490Z,27.93
2019-05-07T11:16:45.275Z,27.69
2019-05-07T11:21:41.774Z,28.69
2019-05-07T11:26:36.858Z,29.25
2019-05-07T11:31:36.175Z,29.55
2019-05-07T11:36:37.970Z,28.77
2019-05-07T11:41:37.511Z,28.90
2019-05-07T11:46:34.244Z,24.29
2019-05-07T11:51:47.065Z,24.48
2019-05-07T11:56:44.746Z,24.50
2019-05-07T12:01:47.019Z,23.60
2019-05-07T12:06:39.326Z,22.56
2019-05-07T12:11:38.306Z,24.47
2019-05-07T12:16:33.128Z,25.02
2019-05-07T12:21:27.837Z,24.57
2019-05-07T12:26:22.507Z,23.11
2019-05-07T12:31:17.457Z,24.28
2019-05-07T12:36:13.905Z,23.52
2019-05-07T12:41:26.671Z,25.66
2019-05-07T12:46:22.363Z,24.34
2019-05-07T12:51:30.540Z,24.77
2019-05-07T12:56:14.410Z,24.02
2019-05-07T13:01:11.980Z,23.51
2019-05-07T13:06:06.791Z,24.19
2019-05-07T13:11:03.062Z,24.32
2019-05-07T13:15:58.733Z,23.91
2019-05-07T13:20:53.446Z,23.21
2019-05-07T13:25:48.260Z,24.27
2019-05-07T13:30:43.889Z,24.40
2019-05-07T13:35:39.735Z,24.47
2019-05-07T13:40:37.370Z,23.93
2019-05-07T13:45:35.708Z,23.57
2019-05-07T13:50:32.521Z,23.60
2019-05-07T13:55:28.426Z,24.40
2019-05-07T14:00:25.299Z,25.23
2019-05-07T14:05:21.737Z,26.22
2019-05-07T14:10:17.740Z,25.73
2019-05-07T14:15:12.833Z,25.56
2019-05-07T14:20:07.864Z,27.33
2019-05-07T14:25:02.538Z,27.86
2019-05-07T14:29:58.876Z,28.07
2019-05-07T14:35:04.224Z,28.18
2019-05-07T14:40:02.557Z,28.36
2019-05-07T14:44:56.952Z,28.58
2019-05-07T14:49:52.975Z,29.07
2019-05-07T14:54:48.756Z,28.85
2019-05-07T14:59:46.335Z,28.44
2019-05-07T15:04:41.945Z,28.69
2019-05-07T15:09:36.743Z,28.48
2019-05-07T15:14:34.863Z,28.27
2019-05-07T15:19:29.526Z,27.97
2019-05-07T15:24:24.260Z,28.16
2019-05-07T15:29:18.998Z,29.06
2019-05-07T15:34:13.658Z,29.08
2019-05-07T15:39:08.444Z,29.01
2019-05-07T15:44:03.114Z,28.80
2019-05-07T15:48:57.709Z,29.67
2019-05-07T15:53:54.013Z,29.21
2019-05-07T15:58:48.624Z,29.64
2019-05-07T16:03:44.840Z,29.26
2019-05-07T16:08:42.517Z,29.35
2019-05-07T16:13:48.243Z,30.08
2019-05-07T16:19:01.899Z,29.81
2019-05-07T16:23:56.586Z,30.04
2019-05-07T16:28:52.856Z,30.34
2019-05-07T16:33:47.553Z,31.17
2019-05-07T16:38:42.168Z,31.29
2019-05-07T16:43:36.748Z,31.21
2019-05-07T16:48:32.727Z,30.91
2019-05-07T16:53:30.236Z,31.06
2019-05-07T16:58:25.578Z,31.81
2019-05-07T17:03:22.317Z,32.30
2019-05-07T17:08:16.672Z,31.66
2019-05-07T17:13:12.565Z,32.27
2019-05-07T17:18:07.395Z,33.16
2019-05-07T17:23:02.956Z,33.79
2019-05-07T17:27:57.956Z,33.76
2019-05-07T17:32:52.677Z,34.27
2019-05-07T17:37:47.234Z,34.88
2019-05-07T17:42:41.843Z,35.30
2019-05-07T17:47:36.432Z,34.76
2019-05-07T17:52:32.354Z,35.02
2019-05-07T17:57:27.302Z,36.57
2019-05-07T18:02:24.312Z,36.55
2019-05-07T18:07:19.040Z,36.26
2019-05-07T18:12:13.622Z,34.33
2019-05-07T18:17:09.997Z,34.40
2019-05-07T18:22:04.755Z,34.50
2019-05-07T18:26:59.409Z,35.65
2019-05-07T18:32:01.567Z,36.49
2019-05-07T18:36:56.163Z,36.34
2019-05-07T18:41:52.303Z,36.79
2019-05-07T18:46:47.119Z,37.49
2019-05-07T18:51:42.689Z,38.33
2019-05-07T18:56:37.541Z,39.52
2019-05-07T19:01:33.793Z,41.26
2019-05-07T19:06:28.401Z,42.42
2019-05-07T19:11:23.106Z,43.07
2019-05-07T19:16:17.737Z,43.65
2019-05-07T19:21:12.398Z,43.55
2019-05-07T19:26:07.026Z,43.58
2019-05-07T19:31:01.622Z,44.37
2019-05-07T19:35:56.210Z,44.87
2019-05-07T19:40:52.784Z,45.16
2019-05-07T19:45:47.267Z,45.25
2019-05-07T19:50:42.094Z,46.02
2019-05-07T19:55:54.693Z,46.47
2019-05-07T20:00:49.454Z,46.93
2019-05-07T20:05:44.066Z,46.75
2019-05-07T20:10:42.110Z,46.42
2019-05-07T20:15:38.438Z,46.43
2019-05-07T20:20:33.274Z,46.53
2019-05-07T20:25:27.899Z,46.55
2019-05-07T20:30:22.930Z,47.21
2019-05-07T20:35:18.614Z,47.28
2019-05-07T20:40:13.522Z,49.23
2019-05-07T20:45:08.309Z,53.40
2019-05-07T20:50:02.906Z,54.05
2019-05-07T20:54:59.133Z,54.83
2019-05-07T20:59:56.077Z,56.55
2019-05-07T21:04:51.916Z,57.92
2019-05-07T21:09:46.836Z,58.59
2019-05-07T21:14:41.866Z,58.73
2019-05-07T21:19:36.613Z,59.13
2019-05-07T21:24:33.067Z,59.15
2019-05-07T21:29:27.514Z,59.82
2019-05-07T21:34:23.064Z,60.07
2019-05-07T21:39:17.770Z,60.55
2019-05-07T21:44:12.345Z,61.02
2019-05-07T21:49:07.081Z,61.36
2019-05-07T21:54:09.057Z,61.40
2019-05-07T21:59:07.746Z,61.65
2019-05-07T22:04:02.400Z,62.04
2019-05-07T22:08:57.012Z,62.47
2019-05-07T22:13:52.615Z,63.42
2019-05-07T22:18:47.925Z,64.78
2019-05-07T22:23:42.968Z,66.32
2019-05-07T22:28:38.080Z,67.62
2019-05-07T22:33:34.347Z,68.23
2019-05-07T22:38:28.928Z,68.66
2019-05-07T22:43:23.705Z,67.86
2019-05-07T22:48:18.292Z,67.32
2019-05-07T22:53:12.885Z,67.45
2019-05-07T22:58:26.939Z,67.20
2019-05-07T23:03:22.854Z,67.08
2019-05-07T23:08:17.606Z,66.91
2019-05-07T23:13:12.967Z,67.85
2019-05-07T23:18:07.977Z,66.47
2019-05-07T23:23:02.548Z,66.69
2019-05-07T23:27:57.151Z,66.32
2019-05-07T23:32:52.770Z,67.92
2019-05-07T23:37:47.791Z,67.34
2019-05-07T23:42:44.002Z,66.11
2019-05-07T23:47:38.599Z,66.73
2019-05-07T23:52:33.166Z,67.31
2019-05-07T23:57:27.762Z,68.08
